createdAt,value
2019-03-29T00:00:32.079Z,95.50
2019-03-29T00:02:10.351Z,95.90
2019-03-29T00:03:46.775Z,95.80
2019-03-29T00:05:23.095Z,95.60
2019-03-29T00:06:59.601Z,95.40
2019-03-29T00:08:36.095Z,95.30
2019-03-29T00:10:12.725Z,95.00
2019-03-29T00:11:49.044Z,94.80
2019-03-29T00:13:25.400Z,94.80
2019-03-29T00:15:01.889Z,95.00
2019-03-29T00:16:38.118Z,95.10
2019-03-29T00:18:14.353Z,95.10
2019-03-29T00:19:50.291Z,95.30
2019-03-29T00:21:26.560Z,95.50
2019-03-29T00:23:03.076Z,95.60
2019-03-29T00:24:39.391Z,95.70
2019-03-29T00:26:19.431Z,95.90
2019-03-29T00:27:55.732Z,96.00
2019-03-29T00:29:32.147Z,96.10
2019-03-29T00:31:08.532Z,96.10
2019-03-29T00:32:45.983Z,96.30
2019-03-29T00:34:22.416Z,96.50
2019-03-29T00:35:59.231Z,96.50
2019-03-29T00:37:36.130Z,96.60
2019-03-29T00:39:12.351Z,96.70
2019-03-29T00:40:48.665Z,96.90
2019-03-29T00:42:24.970Z,97.00
2019-03-29T00:44:01.307Z,97.00
2019-03-29T00:45:37.898Z,96.90
2019-03-29T00:47:14.203Z,97.00
2019-03-29T00:48:50.385Z,97.10
2019-03-29T00:50:26.606Z,97.00
2019-03-29T00:52:02.935Z,97.20
2019-03-29T00:53:39.050Z,97.20
2019-03-29T00:55:15.379Z,97.30
2019-03-29T00:56:51.946Z,97.30
2019-03-29T00:58:28.335Z,97.20
2019-03-29T01:00:08.453Z,97.20
2019-03-29T01:01:44.553Z,97.20
2019-03-29T01:03:20.791Z,96.90
2019-03-29T01:04:56.726Z,97.30
2019-03-29T01:06:32.813Z,97.40
2019-03-29T01:08:10.549Z,97.50
2019-03-29T01:09:47.242Z,97.60
2019-03-29T01:11:23.483Z,97.60
2019-03-29T01:13:00.847Z,97.60
2019-03-29T01:14:38.358Z,97.60
2019-03-29T01:16:14.560Z,97.50
2019-03-29T01:17:50.800Z,97.60
2019-03-29T01:19:27.097Z,97.50
2019-03-29T01:21:03.512Z,97.60
2019-03-29T01:22:39.749Z,97.60
2019-03-29T01:24:16.156Z,97.70
2019-03-29T01:25:52.360Z,97.80
2019-03-29T01:27:28.530Z,97.90
2019-03-29T01:29:04.957Z,97.90
2019-03-29T01:30:41.275Z,98.00
2019-03-29T01:32:17.417Z,98.00
2019-03-29T01:33:53.658Z,98.00
2019-03-29T01:35:29.758Z,98.00
2019-03-29T01:37:07.186Z,98.10
2019-03-29T01:38:43.438Z,98.20
2019-03-29T01:40:19.663Z,98.10
2019-03-29T01:41:55.822Z,98.40
2019-03-29T01:43:32.142Z,98.10
2019-03-29T01:45:09.649Z,98.20
2019-03-29T01:46:45.789Z,98.20
2019-03-29T01:48:22.420Z,98.20
2019-03-29T01:49:58.801Z,98.10
2019-03-29T01:51:35.078Z,98.10
2019-03-29T01:53:11.341Z,98.10
2019-03-29T01:54:48.276Z,98.10
2019-03-29T01:56:43.871Z,98.00
2019-03-29T01:58:19.972Z,98.10
2019-03-29T01:59:56.134Z,98.10
2019-03-29T02:01:32.255Z,98.20
2019-03-29T02:03:08.487Z,98.10
2019-03-29T02:04:44.768Z,98.20
2019-03-29T02:06:21.359Z,98.30
2019-03-29T02:07:57.225Z,98.30
2019-03-29T02:09:33.577Z,98.60
2019-03-29T02:11:09.719Z,98.30
2019-03-29T02:12:45.953Z,98.30
2019-03-29T02:14:22.159Z,98.40
2019-03-29T02:15:58.467Z,98.40
2019-03-29T02:17:34.749Z,98.40
2019-03-29T02:19:12.089Z,98.30
2019-03-29T02:20:48.355Z,98.30
2019-03-29T02:22:24.527Z,98.40
2019-03-29T02:24:00.699Z,98.40
2019-03-29T02:25:36.935Z,98.40
2019-03-29T02:27:13.338Z,98.40
2019-03-29T02:28:49.497Z,98.40
2019-03-29T02:30:25.735Z,98.40
2019-03-29T02:32:01.945Z,98.40
2019-03-29T02:33:38.087Z,98.40
2019-03-29T02:35:14.990Z,98.40
2019-03-29T02:36:51.079Z,98.30
2019-03-29T02:38:27.219Z,98.40
2019-03-29T02:40:03.952Z,98.40
2019-03-29T02:41:40.158Z,98.30
2019-03-29T02:43:17.580Z,98.30
2019-03-29T02:44:53.757Z,98.30
2019-03-29T02:46:29.859Z,98.30
2019-03-29T02:48:07.402Z,98.40
2019-03-29T02:49:43.616Z,98.40
2019-03-29T02:51:19.759Z,98.40
2019-03-29T02:52:55.855Z,98.40
2019-03-29T02:54:32.024Z,98.40
2019-03-29T02:56:08.214Z,98.40
2019-03-29T02:57:44.475Z,98.40
2019-03-29T02:59:20.762Z,98.60
2019-03-29T03:00:56.996Z,98.60
2019-03-29T03:02:33.253Z,98.90
2019-03-29T03:04:09.492Z,98.80
2019-03-29T03:05:45.777Z,98.70
2019-03-29T03:07:22.042Z,98.60
2019-03-29T03:09:12.244Z,98.50
2019-03-29T03:10:36.272Z,98.60
2019-03-29T03:12:12.516Z,98.70
2019-03-29T03:13:48.669Z,98.70
2019-03-29T03:15:24.991Z,98.70
2019-03-29T03:17:01.237Z,98.90
2019-03-29T03:18:37.503Z,98.90
2019-03-29T03:20:16.688Z,99.00
2019-03-29T03:21:52.917Z,98.90
2019-03-29T03:23:29.179Z,98.80
2019-03-29T03:25:07.663Z,98.70
2019-03-29T03:26:43.757Z,98.70
2019-03-29T03:28:19.843Z,98.70
2019-03-29T03:29:55.909Z,99.00
2019-03-29T03:31:32.117Z,98.70
2019-03-29T03:33:08.368Z,98.90
2019-03-29T03:34:44.622Z,98.80
2019-03-29T03:36:20.859Z,98.80
2019-03-29T03:37:56.982Z,98.90
2019-03-29T03:39:33.120Z,98.90
2019-03-29T03:41:09.415Z,99.00
2019-03-29T03:42:45.627Z,99.00
2019-03-29T03:44:21.785Z,99.10
2019-03-29T03:45:57.888Z,99.10
2019-03-29T03:47:34.096Z,99.20
2019-03-29T03:49:10.193Z,99.20
2019-03-29T03:50:47.162Z,99.30
2019-03-29T03:52:23.565Z,99.30
2019-03-29T03:53:59.788Z,99.40
2019-03-29T03:55:39.293Z,99.30
2019-03-29T03:57:15.896Z,99.30
2019-03-29T03:58:52.713Z,99.30
2019-03-29T04:00:53.826Z,99.30
2019-03-29T04:02:29.995Z,99.30
2019-03-29T04:04:06.386Z,99.30
2019-03-29T04:05:42.388Z,99.20
2019-03-29T04:07:18.578Z,99.20
2019-03-29T04:08:55.050Z,99.30
2019-03-29T04:10:31.145Z,99.40
2019-03-29T04:12:07.378Z,99.50
2019-03-29T04:13:43.631Z,99.50
2019-03-29T04:15:19.866Z,99.50
2019-03-29T04:16:56.223Z,99.50
2019-03-29T04:18:32.524Z,99.60
2019-03-29T04:20:09.188Z,99.60
2019-03-29T04:21:45.246Z,99.60
2019-03-29T04:23:21.534Z,99.50
2019-03-29T04:24:58.843Z,99.50
2019-03-29T04:26:35.047Z,99.50
2019-03-29T04:28:11.352Z,99.60
2019-03-29T04:29:47.519Z,99.60
2019-03-29T04:31:23.820Z,99.80
2019-03-29T04:33:00.065Z,99.50
2019-03-29T04:34:36.263Z,99.50
2019-03-29T04:36:12.568Z,99.40
2019-03-29T04:37:48.696Z,99.30
2019-03-29T04:39:24.901Z,99.20
2019-03-29T04:41:01.118Z,99.30
2019-03-29T04:42:37.224Z,99.30
2019-03-29T04:44:13.419Z,99.20
2019-03-29T04:45:49.530Z,99.20
2019-03-29T04:47:25.800Z,99.20
2019-03-29T04:49:02.109Z,99.20
2019-03-29T04:50:38.367Z,98.90
2019-03-29T04:52:14.464Z,98.90
2019-03-29T04:53:50.631Z,99.10
2019-03-29T04:55:26.960Z,99.20
2019-03-29T04:57:03.084Z,99.20
2019-03-29T04:58:39.251Z,99.30
2019-03-29T05:00:15.933Z,99.20
2019-03-29T05:01:52.180Z,99.30
2019-03-29T05:03:28.353Z,99.30
2019-03-29T05:05:06.462Z,99.20
2019-03-29T05:06:42.566Z,99.10
2019-03-29T05:08:18.729Z,99.50
2019-03-29T05:09:55.005Z,99.20
2019-03-29T05:11:31.117Z,99.30
2019-03-29T05:13:07.422Z,99.60
2019-03-29T05:14:43.768Z,99.60
2019-03-29T05:16:19.872Z,99.70
2019-03-29T05:17:55.971Z,99.70
2019-03-29T05:19:32.416Z,99.80
2019-03-29T05:21:08.679Z,99.70
2019-03-29T05:22:44.949Z,99.70
2019-03-29T05:24:21.093Z,98.50
2019-03-29T05:25:57.358Z,98.10
2019-03-29T05:27:33.540Z,98.90
2019-03-29T05:29:09.727Z,98.50
2019-03-29T05:30:45.827Z,98.40
2019-03-29T05:32:21.960Z,98.20
2019-03-29T05:33:58.126Z,98.10
2019-03-29T05:35:34.291Z,98.50
2019-03-29T05:37:10.535Z,98.80
2019-03-29T05:38:46.817Z,98.60
2019-03-29T05:40:34.249Z,98.70
2019-03-29T05:42:01.040Z,99.10
2019-03-29T05:43:37.154Z,99.20
2019-03-29T05:45:13.604Z,99.40
2019-03-29T05:46:49.914Z,99.40
2019-03-29T05:48:26.155Z,99.50
2019-03-29T05:50:02.392Z,99.60
2019-03-29T05:51:38.744Z,99.40
2019-03-29T05:53:14.850Z,99.60
2019-03-29T05:54:51.020Z,99.60
2019-03-29T05:56:27.253Z,99.40
2019-03-29T05:58:03.497Z,99.60
2019-03-29T05:59:39.791Z,99.70
2019-03-29T06:01:17.082Z,99.60
2019-03-29T06:02:53.249Z,99.40
2019-03-29T06:04:29.422Z,99.70
2019-03-29T06:06:05.456Z,99.60
2019-03-29T06:07:42.954Z,99.50
2019-03-29T06:09:19.048Z,99.40
2019-03-29T06:10:55.064Z,99.30
2019-03-29T06:12:31.264Z,99.20
2019-03-29T06:14:07.160Z,99.10
2019-03-29T06:15:43.430Z,99.00
2019-03-29T06:17:19.559Z,98.90
2019-03-29T06:18:55.765Z,98.80
2019-03-29T06:20:32.000Z,98.20
2019-03-29T06:22:08.337Z,97.80
2019-03-29T06:23:44.571Z,97.80
2019-03-29T06:25:20.747Z,97.50
2019-03-29T06:26:56.914Z,97.10
2019-03-29T06:28:33.087Z,97.30
2019-03-29T06:30:10.984Z,97.00
2019-03-29T06:31:47.263Z,96.90
2019-03-29T06:33:23.501Z,95.40
2019-03-29T06:34:59.802Z,94.10
2019-03-29T06:36:36.525Z,92.90
2019-03-29T06:38:14.027Z,91.60
2019-03-29T06:39:52.972Z,90.40
2019-03-29T06:41:29.198Z,88.50
2019-03-29T06:43:05.709Z,86.60
2019-03-29T06:44:44.277Z,84.70
2019-03-29T06:46:19.891Z,83.70
2019-03-29T06:47:56.219Z,82.00
2019-03-29T06:49:32.403Z,80.70
2019-03-29T06:51:08.582Z,79.20
2019-03-29T06:52:44.752Z,78.00
2019-03-29T06:54:20.937Z,76.50
2019-03-29T06:55:59.307Z,76.40
2019-03-29T06:57:35.004Z,75.20
2019-03-29T06:59:10.808Z,74.20
2019-03-29T07:00:47.216Z,74.00
2019-03-29T07:02:23.158Z,73.60
2019-03-29T07:03:59.406Z,73.10
2019-03-29T07:05:35.572Z,71.90
2019-03-29T07:07:11.661Z,71.20
2019-03-29T07:08:47.762Z,70.50
2019-03-29T07:10:24.018Z,69.40
2019-03-29T07:12:00.209Z,68.80
2019-03-29T07:13:36.317Z,67.40
2019-03-29T07:15:12.627Z,67.10
2019-03-29T07:16:48.848Z,68.00
2019-03-29T07:18:25.191Z,66.40
2019-03-29T07:20:02.160Z,65.70
2019-03-29T07:21:38.338Z,64.70
2019-03-29T07:23:14.579Z,64.20
2019-03-29T07:24:50.702Z,63.70
2019-03-29T07:26:26.805Z,63.60
2019-03-29T07:28:03.066Z,64.30
2019-03-29T07:29:39.350Z,62.50
2019-03-29T07:31:15.630Z,62.60
2019-03-29T07:32:51.865Z,61.70
2019-03-29T07:34:28.224Z,61.40
2019-03-29T07:36:04.466Z,61.90
2019-03-29T07:37:40.730Z,63.60
2019-03-29T07:39:16.970Z,63.70
2019-03-29T07:40:52.922Z,63.90
2019-03-29T07:42:48.429Z,65.10
2019-03-29T07:44:24.716Z,65.60
2019-03-29T07:46:01.059Z,66.50
2019-03-29T07:47:37.314Z,67.80
2019-03-29T07:49:13.662Z,69.90
2019-03-29T07:50:50.015Z,70.30
2019-03-29T07:52:26.025Z,71.30
2019-03-29T07:54:02.209Z,71.00
2019-03-29T07:55:38.311Z,71.40
2019-03-29T07:57:14.460Z,72.50
2019-03-29T07:58:50.734Z,73.10
2019-03-29T08:00:26.978Z,72.30
2019-03-29T08:02:03.221Z,72.30
2019-03-29T08:03:39.428Z,73.00
2019-03-29T08:05:15.728Z,73.00
2019-03-29T08:06:52.070Z,72.10
2019-03-29T08:08:32.253Z,72.40
2019-03-29T08:10:07.964Z,72.60
2019-03-29T08:11:46.489Z,72.60
2019-03-29T08:13:22.156Z,72.80
2019-03-29T08:14:58.408Z,72.80
2019-03-29T08:16:34.738Z,73.00
2019-03-29T08:18:11.064Z,72.50
2019-03-29T08:19:47.311Z,72.60
2019-03-29T08:21:24.807Z,72.50
2019-03-29T08:23:01.227Z,72.30
2019-03-29T08:24:37.308Z,72.00
2019-03-29T08:26:13.555Z,71.80
2019-03-29T08:27:49.807Z,72.50
2019-03-29T08:29:26.077Z,72.80
2019-03-29T08:31:02.594Z,73.20
2019-03-29T08:32:38.764Z,73.80
2019-03-29T08:34:16.144Z,73.20
2019-03-29T08:35:52.308Z,73.40
2019-03-29T08:37:28.529Z,73.70
2019-03-29T08:39:10.028Z,75.00
2019-03-29T08:40:45.468Z,74.60
2019-03-29T08:42:21.829Z,74.20
2019-03-29T08:43:57.902Z,75.20
2019-03-29T08:45:34.286Z,74.40
2019-03-29T08:47:10.620Z,74.70
2019-03-29T08:48:48.132Z,74.50
2019-03-29T08:50:24.433Z,75.00
2019-03-29T08:52:00.591Z,75.50
2019-03-29T08:53:36.827Z,75.70
2019-03-29T08:55:13.145Z,76.20
2019-03-29T08:56:49.226Z,76.60
2019-03-29T08:58:25.509Z,77.00
2019-03-29T09:00:01.677Z,76.40
2019-03-29T09:01:37.982Z,76.50
2019-03-29T09:03:14.285Z,76.60
2019-03-29T09:04:50.630Z,75.90
2019-03-29T09:06:29.976Z,75.50
2019-03-29T09:08:04.585Z,75.30
2019-03-29T09:09:40.794Z,75.10
2019-03-29T09:11:16.905Z,75.30
2019-03-29T09:12:53.278Z,75.10
2019-03-29T09:14:31.395Z,73.60
2019-03-29T09:16:07.370Z,73.30
2019-03-29T09:17:43.603Z,72.70
2019-03-29T09:19:19.849Z,72.20
2019-03-29T09:20:56.013Z,71.80
2019-03-29T09:22:32.175Z,71.60
2019-03-29T09:24:21.061Z,71.10
2019-03-29T09:25:46.515Z,71.20
2019-03-29T09:27:22.693Z,70.20
2019-03-29T09:28:59.022Z,70.10
2019-03-29T09:30:35.294Z,69.70
2019-03-29T09:32:11.606Z,68.50
2019-03-29T09:33:47.946Z,68.10
2019-03-29T09:35:24.323Z,66.30
2019-03-29T09:37:04.778Z,65.40
2019-03-29T09:38:43.688Z,63.80
2019-03-29T09:40:20.650Z,62.50
2019-03-29T09:41:56.872Z,62.20
2019-03-29T09:43:33.150Z,59.10
2019-03-29T09:45:09.847Z,58.80
2019-03-29T09:46:46.149Z,57.80
2019-03-29T09:48:22.262Z,57.40
2019-03-29T09:49:58.192Z,57.50
2019-03-29T09:51:36.020Z,57.20
2019-03-29T09:53:12.102Z,56.40
2019-03-29T09:54:48.196Z,57.10
2019-03-29T09:56:37.919Z,56.50
2019-03-29T09:58:02.785Z,56.10
2019-03-29T09:59:39.033Z,56.00
2019-03-29T10:01:15.160Z,56.20
2019-03-29T10:02:51.481Z,56.60
2019-03-29T10:04:28.962Z,56.20
2019-03-29T10:06:05.424Z,56.40
2019-03-29T10:07:41.826Z,55.30
2019-03-29T10:09:18.039Z,55.00
2019-03-29T10:10:54.211Z,54.60
2019-03-29T10:12:42.574Z,53.30
2019-03-29T10:14:08.358Z,53.10
2019-03-29T10:15:44.789Z,54.50
2019-03-29T10:17:20.956Z,53.70
2019-03-29T10:18:57.124Z,54.10
2019-03-29T10:20:33.220Z,54.80
2019-03-29T10:22:09.512Z,54.80
2019-03-29T10:23:45.704Z,55.00
2019-03-29T10:25:22.330Z,55.00
2019-03-29T10:26:58.505Z,55.10
2019-03-29T10:28:34.741Z,55.00
2019-03-29T10:30:11.856Z,54.70
2019-03-29T10:31:48.155Z,53.30
2019-03-29T10:33:24.442Z,53.00
2019-03-29T10:35:00.676Z,53.10
2019-03-29T10:36:36.845Z,53.50
2019-03-29T10:38:13.051Z,53.80
2019-03-29T10:39:49.364Z,54.00
2019-03-29T10:41:25.808Z,54.30
2019-03-29T10:43:01.909Z,53.30
2019-03-29T10:44:38.145Z,53.10
2019-03-29T10:46:14.306Z,53.10
2019-03-29T10:47:50.493Z,52.60
2019-03-29T10:49:26.640Z,50.90
2019-03-29T10:51:02.995Z,50.70
2019-03-29T10:52:39.106Z,50.80
2019-03-29T10:54:15.339Z,50.70
2019-03-29T10:55:51.536Z,50.50
2019-03-29T10:57:27.612Z,51.00
2019-03-29T10:59:04.034Z,51.10
2019-03-29T11:00:41.614Z,50.30
2019-03-29T11:02:17.845Z,50.60
2019-03-29T11:03:54.079Z,51.20
2019-03-29T11:05:30.173Z,49.80
2019-03-29T11:07:06.504Z,49.20
2019-03-29T11:08:43.715Z,48.50
2019-03-29T11:10:36.388Z,49.30
2019-03-29T11:12:12.687Z,49.60
2019-03-29T11:13:49.069Z,49.20
2019-03-29T11:15:25.331Z,48.10
2019-03-29T11:17:01.204Z,48.40
2019-03-29T11:18:37.340Z,48.60
2019-03-29T11:20:13.611Z,49.40
2019-03-29T11:21:49.782Z,49.90
2019-03-29T11:23:26.020Z,49.80
2019-03-29T11:25:02.253Z,51.80
2019-03-29T11:26:38.585Z,52.80
2019-03-29T11:28:14.822Z,53.00
2019-03-29T11:29:52.020Z,53.90
2019-03-29T11:31:28.391Z,54.50
2019-03-29T11:33:05.328Z,55.80
2019-03-29T11:34:41.415Z,56.80
2019-03-29T11:36:17.721Z,57.80
2019-03-29T11:37:53.952Z,56.80
2019-03-29T11:39:30.608Z,57.10
2019-03-29T11:41:06.870Z,57.00
2019-03-29T11:42:43.038Z,56.10
2019-03-29T11:44:19.341Z,55.50
2019-03-29T11:45:56.852Z,55.20
2019-03-29T11:47:33.084Z,55.60
2019-03-29T11:49:09.265Z,56.30
2019-03-29T11:50:45.462Z,56.50
2019-03-29T11:52:21.600Z,57.00
2019-03-29T11:53:57.767Z,56.60
2019-03-29T11:55:34.012Z,55.90
2019-03-29T11:57:10.436Z,55.70
2019-03-29T11:58:46.603Z,55.70
2019-03-29T12:00:37.263Z,58.10
2019-03-29T12:02:13.457Z,58.70
2019-03-29T12:03:50.007Z,61.00
2019-03-29T12:05:26.180Z,60.40
2019-03-29T12:07:03.697Z,59.70
2019-03-29T12:08:39.984Z,60.10
2019-03-29T12:10:16.286Z,60.10
2019-03-29T12:11:52.461Z,59.60
2019-03-29T12:13:40.508Z,59.30
2019-03-29T12:15:09.057Z,58.20
2019-03-29T12:16:45.399Z,57.50
2019-03-29T12:18:21.918Z,58.20
2019-03-29T12:19:58.365Z,58.80
2019-03-29T12:21:34.524Z,58.90
2019-03-29T12:23:11.055Z,58.40
2019-03-29T12:24:47.662Z,57.90
2019-03-29T12:26:23.885Z,57.10
2019-03-29T12:28:00.039Z,57.50
2019-03-29T12:29:36.316Z,57.60
2019-03-29T12:31:13.141Z,57.40
2019-03-29T12:32:49.396Z,57.70
2019-03-29T12:34:25.738Z,57.80
2019-03-29T12:36:01.833Z,57.80
2019-03-29T12:37:38.074Z,57.70
2019-03-29T12:39:16.845Z,57.80
2019-03-29T12:40:53.384Z,57.50
2019-03-29T12:42:29.745Z,57.40
2019-03-29T12:44:06.144Z,57.30
2019-03-29T12:45:42.407Z,57.20
2019-03-29T12:47:18.593Z,57.10
2019-03-29T12:48:55.005Z,57.20
2019-03-29T12:50:31.173Z,57.00
2019-03-29T12:52:07.481Z,57.30
2019-03-29T12:53:43.932Z,57.90
2019-03-29T12:55:20.837Z,58.10
2019-03-29T12:56:57.179Z,58.30
2019-03-29T12:58:33.446Z,58.10
2019-03-29T13:00:11.567Z,58.40
2019-03-29T13:01:47.867Z,58.40
2019-03-29T13:03:25.668Z,58.50
2019-03-29T13:05:03.418Z,58.70
2019-03-29T13:06:39.590Z,58.80
2019-03-29T13:08:15.927Z,58.90
2019-03-29T13:09:52.104Z,58.90
2019-03-29T13:11:28.368Z,58.90
2019-03-29T13:13:04.681Z,59.60
2019-03-29T13:14:40.851Z,61.30
2019-03-29T13:16:18.261Z,61.30
2019-03-29T13:17:54.617Z,61.30
2019-03-29T13:19:30.939Z,60.30
2019-03-29T13:21:07.038Z,60.30
2019-03-29T13:22:43.222Z,60.60
2019-03-29T13:24:19.457Z,59.80
2019-03-29T13:25:56.832Z,59.90
2019-03-29T13:27:33.186Z,60.20
2019-03-29T13:29:09.380Z,60.90
2019-03-29T13:30:45.626Z,59.90
2019-03-29T13:32:21.942Z,59.70
2019-03-29T13:33:58.244Z,60.50
2019-03-29T13:35:34.671Z,60.60
2019-03-29T13:37:10.769Z,60.90
2019-03-29T13:38:47.051Z,60.60
2019-03-29T13:40:23.493Z,61.10
2019-03-29T13:41:59.667Z,61.60
2019-03-29T13:43:35.984Z,62.00
2019-03-29T13:45:12.822Z,62.00
2019-03-29T13:46:48.925Z,63.10
2019-03-29T13:48:25.106Z,62.60
2019-03-29T13:50:01.953Z,63.40
2019-03-29T13:51:38.562Z,63.90
2019-03-29T13:53:14.508Z,64.00
2019-03-29T13:54:50.725Z,64.10
2019-03-29T13:56:26.588Z,64.20
2019-03-29T13:58:02.899Z,64.20
2019-03-29T13:59:39.071Z,64.20
2019-03-29T14:01:15.221Z,64.10
2019-03-29T14:02:51.452Z,64.20
2019-03-29T14:04:27.657Z,64.60
2019-03-29T14:06:04.007Z,64.50
2019-03-29T14:07:41.391Z,64.20
2019-03-29T14:09:17.637Z,63.90
2019-03-29T14:10:54.126Z,64.00
2019-03-29T14:12:30.429Z,63.70
2019-03-29T14:14:06.933Z,63.70
2019-03-29T14:15:43.108Z,63.80
2019-03-29T14:17:19.278Z,64.10
2019-03-29T14:18:55.602Z,64.60
2019-03-29T14:20:34.415Z,64.30
2019-03-29T14:22:10.660Z,64.60
2019-03-29T14:23:46.917Z,64.80
2019-03-29T14:25:23.016Z,64.70
2019-03-29T14:26:59.460Z,64.50
2019-03-29T14:28:35.560Z,64.50
2019-03-29T14:30:12.373Z,64.70
2019-03-29T14:31:48.411Z,65.20
2019-03-29T14:33:24.597Z,64.90
2019-03-29T14:35:02.289Z,65.10
2019-03-29T14:36:38.642Z,65.40
2019-03-29T14:38:14.784Z,65.50
2019-03-29T14:39:50.954Z,65.40
2019-03-29T14:41:27.140Z,65.40
2019-03-29T14:43:04.571Z,65.70
2019-03-29T14:44:51.659Z,66.00
2019-03-29T14:46:18.583Z,66.00
2019-03-29T14:47:54.770Z,65.70
2019-03-29T14:49:31.120Z,67.30
2019-03-29T14:51:07.385Z,66.80
2019-03-29T14:52:43.848Z,66.80
2019-03-29T14:54:19.973Z,67.10
2019-03-29T14:55:56.195Z,67.50
2019-03-29T14:57:32.468Z,67.20
2019-03-29T14:59:08.737Z,67.70
2019-03-29T15:00:48.594Z,67.90
2019-03-29T15:02:23.913Z,68.20
2019-03-29T15:04:00.183Z,68.30
2019-03-29T15:05:36.591Z,68.50
2019-03-29T15:07:12.911Z,68.90
2019-03-29T15:08:51.331Z,69.10
2019-03-29T15:10:29.672Z,69.40
2019-03-29T15:12:07.053Z,69.70
2019-03-29T15:13:43.575Z,69.50
2019-03-29T15:15:19.881Z,70.10
2019-03-29T15:16:56.078Z,70.30
2019-03-29T15:18:32.179Z,70.20
2019-03-29T15:20:09.051Z,70.40
2019-03-29T15:21:45.122Z,70.40
2019-03-29T15:23:21.524Z,70.50
2019-03-29T15:24:57.781Z,70.80
2019-03-29T15:26:34.025Z,71.10
2019-03-29T15:28:10.264Z,71.20
2019-03-29T15:29:46.611Z,71.70
2019-03-29T15:31:24.002Z,71.80
2019-03-29T15:33:00.244Z,72.00
2019-03-29T15:34:36.352Z,72.10
2019-03-29T15:36:12.688Z,72.10
2019-03-29T15:37:48.903Z,72.30
2019-03-29T15:39:25.219Z,72.60
2019-03-29T15:41:01.399Z,72.60
2019-03-29T15:42:37.702Z,72.80
2019-03-29T15:44:14.011Z,72.80
2019-03-29T15:45:50.283Z,72.70
2019-03-29T15:47:27.719Z,72.60
2019-03-29T15:49:03.961Z,72.50
2019-03-29T15:50:40.200Z,73.10
2019-03-29T15:52:16.441Z,73.50
2019-03-29T15:53:52.809Z,73.60
2019-03-29T15:55:28.994Z,73.70
2019-03-29T15:57:05.242Z,73.80
2019-03-29T15:58:42.536Z,74.30
2019-03-29T16:00:18.917Z,74.30
2019-03-29T16:01:55.120Z,74.60
2019-03-29T16:03:31.250Z,74.60
2019-03-29T16:05:07.980Z,74.90
2019-03-29T16:06:44.216Z,74.70
2019-03-29T16:08:20.544Z,75.00
2019-03-29T16:09:56.749Z,74.90
2019-03-29T16:11:32.989Z,74.90
2019-03-29T16:13:09.092Z,75.10
2019-03-29T16:14:45.263Z,75.40
2019-03-29T16:16:21.550Z,75.80
2019-03-29T16:17:57.772Z,75.90
2019-03-29T16:19:34.041Z,76.00
2019-03-29T16:21:11.489Z,76.10
2019-03-29T16:22:48.469Z,75.90
2019-03-29T16:24:24.704Z,76.80
2019-03-29T16:26:00.914Z,76.30
2019-03-29T16:27:37.180Z,76.70
2019-03-29T16:29:13.052Z,76.90
2019-03-29T16:30:49.373Z,77.00
2019-03-29T16:32:25.644Z,77.10
2019-03-29T16:34:01.985Z,77.30
2019-03-29T16:35:38.225Z,77.50
2019-03-29T16:37:14.334Z,77.60
2019-03-29T16:38:50.431Z,77.80
2019-03-29T16:40:26.731Z,77.80
2019-03-29T16:42:02.960Z,77.90
2019-03-29T16:43:39.307Z,78.10
2019-03-29T16:45:15.703Z,78.00
2019-03-29T16:46:51.538Z,78.80
2019-03-29T16:48:28.964Z,78.50
2019-03-29T16:50:10.546Z,78.70
2019-03-29T16:51:46.849Z,79.20
2019-03-29T16:53:23.172Z,79.30
2019-03-29T16:55:12.505Z,79.70
2019-03-29T16:56:37.564Z,79.70
2019-03-29T16:58:13.872Z,80.00
2019-03-29T16:59:50.127Z,80.30
2019-03-29T17:01:26.319Z,80.40
2019-03-29T17:03:02.581Z,80.50
2019-03-29T17:04:38.912Z,80.70
2019-03-29T17:06:15.064Z,81.60
2019-03-29T17:07:51.291Z,81.40
2019-03-29T17:09:27.596Z,81.50
2019-03-29T17:11:03.893Z,81.60
2019-03-29T17:12:40.047Z,81.90
2019-03-29T17:14:16.291Z,82.10
2019-03-29T17:16:01.535Z,82.30
2019-03-29T17:17:30.179Z,82.50
2019-03-29T17:19:06.442Z,82.50
2019-03-29T17:20:42.677Z,82.50
2019-03-29T17:22:18.824Z,82.70
2019-03-29T17:23:54.993Z,82.70
2019-03-29T17:25:31.226Z,82.70
2019-03-29T17:27:07.561Z,83.00
2019-03-29T17:28:43.742Z,83.20
2019-03-29T17:30:24.485Z,83.30
2019-03-29T17:32:00.331Z,83.30
2019-03-29T17:33:36.469Z,83.40
2019-03-29T17:35:12.694Z,83.50
2019-03-29T17:36:48.923Z,83.40
2019-03-29T17:38:25.267Z,83.50
2019-03-29T17:40:01.352Z,83.50
2019-03-29T17:41:37.511Z,83.60
2019-03-29T17:43:13.814Z,84.40
2019-03-29T17:44:52.263Z,83.60
2019-03-29T17:46:47.676Z,83.60
2019-03-29T17:48:23.944Z,83.70
2019-03-29T17:50:00.402Z,84.10
2019-03-29T17:51:36.799Z,84.00
2019-03-29T17:53:13.115Z,84.10
2019-03-29T17:54:49.416Z,84.20
2019-03-29T17:56:25.734Z,84.20
2019-03-29T17:58:01.956Z,84.30
2019-03-29T17:59:38.188Z,84.30
2019-03-29T18:01:14.416Z,84.40
2019-03-29T18:02:50.679Z,84.30
2019-03-29T18:04:26.890Z,84.20
2019-03-29T18:06:03.051Z,84.30
2019-03-29T18:07:39.361Z,84.30
2019-03-29T18:09:15.510Z,84.40
2019-03-29T18:10:51.767Z,83.90
2019-03-29T18:12:27.934Z,84.50
2019-03-29T18:14:04.330Z,84.60
2019-03-29T18:15:40.658Z,84.70
2019-03-29T18:17:17.009Z,84.70
2019-03-29T18:18:53.235Z,84.80
2019-03-29T18:20:29.463Z,85.00
2019-03-29T18:22:05.777Z,85.20
2019-03-29T18:23:41.934Z,85.00
2019-03-29T18:25:18.378Z,85.20
2019-03-29T18:26:54.535Z,85.40
2019-03-29T18:28:30.699Z,85.50
2019-03-29T18:30:10.867Z,85.70
2019-03-29T18:31:47.268Z,85.90
2019-03-29T18:33:25.071Z,85.70
2019-03-29T18:35:01.278Z,86.50
2019-03-29T18:36:39.075Z,85.90
2019-03-29T18:38:15.270Z,86.20
2019-03-29T18:39:54.849Z,86.20
2019-03-29T18:41:29.808Z,86.30
2019-03-29T18:43:06.828Z,86.40
2019-03-29T18:44:43.112Z,86.60
2019-03-29T18:46:19.345Z,86.70
2019-03-29T18:47:55.649Z,86.80
2019-03-29T18:49:31.952Z,86.80
2019-03-29T18:51:08.214Z,87.00
2019-03-29T18:52:44.456Z,87.80
2019-03-29T18:54:20.576Z,87.20
2019-03-29T18:55:56.783Z,87.80
2019-03-29T18:57:33.017Z,87.70
2019-03-29T18:59:09.237Z,87.90
2019-03-29T19:00:45.412Z,88.30
2019-03-29T19:02:21.570Z,88.20
2019-03-29T19:03:59.002Z,88.40
2019-03-29T19:05:35.505Z,88.50
2019-03-29T19:07:11.671Z,88.60
2019-03-29T19:08:48.122Z,88.80
2019-03-29T19:10:24.624Z,89.10
2019-03-29T19:12:00.960Z,89.40
2019-03-29T19:13:38.306Z,89.60
2019-03-29T19:15:14.539Z,89.70
2019-03-29T19:16:58.763Z,90.00
2019-03-29T19:18:28.559Z,90.10
2019-03-29T19:20:10.650Z,90.20
2019-03-29T19:21:44.431Z,90.30
2019-03-29T19:23:20.595Z,90.30
2019-03-29T19:24:56.704Z,90.40
2019-03-29T19:26:32.864Z,90.50
2019-03-29T19:28:10.143Z,90.70
2019-03-29T19:29:46.297Z,90.70
2019-03-29T19:31:22.649Z,90.80
2019-03-29T19:32:58.853Z,90.90
2019-03-29T19:34:35.017Z,91.00
2019-03-29T19:36:11.477Z,91.10
2019-03-29T19:37:47.798Z,91.10
2019-03-29T19:39:25.077Z,91.10
2019-03-29T19:41:01.428Z,91.10
2019-03-29T19:42:37.730Z,91.10
2019-03-29T19:44:14.031Z,91.30
2019-03-29T19:45:50.245Z,91.30
2019-03-29T19:47:26.462Z,91.40
2019-03-29T19:49:02.815Z,91.50
2019-03-29T19:50:38.995Z,91.60
2019-03-29T19:52:15.149Z,91.60
2019-03-29T19:53:51.315Z,91.80
2019-03-29T19:55:27.675Z,91.70
2019-03-29T19:57:03.817Z,92.00
2019-03-29T19:58:40.021Z,92.00
2019-03-29T20:00:17.526Z,92.10
2019-03-29T20:01:53.807Z,92.20
2019-03-29T20:03:30.043Z,92.30
2019-03-29T20:05:10.751Z,92.40
2019-03-29T20:06:49.041Z,92.50
2019-03-29T20:08:25.384Z,92.60
2019-03-29T20:10:01.704Z,92.70
2019-03-29T20:11:38.244Z,93.00
2019-03-29T20:13:14.576Z,92.80
2019-03-29T20:14:50.819Z,92.80
2019-03-29T20:16:27.120Z,92.90
2019-03-29T20:18:03.357Z,93.00
2019-03-29T20:19:39.604Z,93.00
2019-03-29T20:21:15.906Z,93.30
2019-03-29T20:22:53.806Z,93.30
2019-03-29T20:24:29.972Z,93.40
2019-03-29T20:26:08.267Z,93.40
2019-03-29T20:27:44.081Z,93.40
2019-03-29T20:29:20.321Z,93.50
2019-03-29T20:30:56.565Z,93.60
2019-03-29T20:32:32.885Z,94.00
2019-03-29T20:34:08.884Z,94.00
2019-03-29T20:35:45.315Z,94.10
2019-03-29T20:37:21.490Z,94.00
2019-03-29T20:38:57.755Z,94.00
2019-03-29T20:40:34.062Z,94.20
2019-03-29T20:42:10.165Z,94.30
2019-03-29T20:43:46.332Z,94.40